createdAt,value
2022-10-13T00:00:14.080Z,24.48
2022-10-13T00:02:42.479Z,22.02
2022-10-13T00:05:09.662Z,26.70
2022-10-13T00:07:36.494Z,25.67
2022-10-13T00:10:03.619Z,28.42
2022-10-13T00:12:30.460Z,23.25
2022-10-13T00:14:58.396Z,21.70
2022-10-13T00:17:25.216Z,24.75
2022-10-13T00:19:52.074Z,21.75
2022-10-13T00:22:19.263Z,24.85
2022-10-13T00:24:51.399Z,27.35
2022-10-13T00:27:18.268Z,25.77
2022-10-13T00:29:45.177Z,24.08
2022-10-13T00:32:12.203Z,24.95
2022-10-13T00:34:39.409Z,24.58
2022-10-13T00:37:06.501Z,27.37
2022-10-13T00:39:33.351Z,25.83
2022-10-13T00:42:00.739Z,26.77
2022-10-13T00:44:59.434Z,23.20
2022-10-13T00:47:33.997Z,21.10
2022-10-13T00:50:01.633Z,26.02
2022-10-13T00:52:28.760Z,23.08
2022-10-13T00:54:56.564Z,26.40
2022-10-13T00:57:23.759Z,26.75
2022-10-13T00:59:50.988Z,24.70
2022-10-13T01:02:18.192Z,24.15
2022-10-13T01:04:47.043Z,20.95
2022-10-13T01:07:15.623Z,22.55
2022-10-13T01:09:42.799Z,21.33
2022-10-13T01:12:34.623Z,22.25
2022-10-13T01:15:18.008Z,22.13
2022-10-13T01:17:54.218Z,21.85
2022-10-13T01:20:24.184Z,21.05
2022-10-13T01:23:06.740Z,24.52
2022-10-13T01:26:25.891Z,19.67
2022-10-13T01:29:05.020Z,23.10
2022-10-13T01:31:45.989Z,22.73
2022-10-13T01:34:24.221Z,21.73
2022-10-13T01:36:55.972Z,21.20
2022-10-13T01:39:28.596Z,23.85
2022-10-13T01:42:01.276Z,23.70
2022-10-13T01:44:36.804Z,24.77
2022-10-13T01:47:04.350Z,34.88
2022-10-13T01:49:35.341Z,23.48
2022-10-13T01:52:08.635Z,22.00
2022-10-13T01:54:35.543Z,22.42
2022-10-13T01:57:02.555Z,23.17
2022-10-13T01:59:32.933Z,22.30
2022-10-13T02:02:21.788Z,20.37
2022-10-13T02:05:09.171Z,19.33
2022-10-13T02:07:53.266Z,19.37
2022-10-13T02:10:28.981Z,20.05
2022-10-13T02:13:06.848Z,17.70
2022-10-13T02:15:46.633Z,17.87
2022-10-13T02:18:15.540Z,18.73
2022-10-13T02:20:42.790Z,18.48
2022-10-13T02:23:13.651Z,17.75
2022-10-13T02:25:41.084Z,17.65
2022-10-13T02:28:08.176Z,16.52
2022-10-13T02:30:35.611Z,18.85
2022-10-13T02:33:03.071Z,18.80
2022-10-13T02:35:31.170Z,19.70
2022-10-13T02:37:58.050Z,19.15
2022-10-13T02:40:25.395Z,18.20
2022-10-13T02:42:52.261Z,20.25
2022-10-13T02:45:19.435Z,20.90
2022-10-13T02:47:46.469Z,21.77
2022-10-13T02:50:13.399Z,23.45
2022-10-13T02:52:40.294Z,17.65
2022-10-13T02:55:07.943Z,23.17
2022-10-13T02:57:34.841Z,24.48
2022-10-13T03:00:02.029Z,28.45
2022-10-13T03:02:28.902Z,27.13
2022-10-13T03:04:56.222Z,26.95
2022-10-13T03:07:23.121Z,28.12
2022-10-13T03:09:50.098Z,24.17
2022-10-13T03:12:17.317Z,21.92
2022-10-13T03:14:44.313Z,22.67
2022-10-13T03:17:13.513Z,20.65
2022-10-13T03:19:40.594Z,23.02
2022-10-13T03:22:07.447Z,17.33
2022-10-13T03:24:34.316Z,18.08
2022-10-13T03:27:01.168Z,18.30
2022-10-13T03:29:28.038Z,17.73
2022-10-13T03:31:54.887Z,19.75
2022-10-13T03:34:22.130Z,16.77
2022-10-13T03:36:49.013Z,15.40
2022-10-13T03:39:15.896Z,16.35
2022-10-13T03:41:43.149Z,16.10
2022-10-13T03:44:13.481Z,16.77
2022-10-13T03:46:40.709Z,20.83
2022-10-13T03:49:07.605Z,17.62
2022-10-13T03:51:34.436Z,17.52
2022-10-13T03:54:01.277Z,18.00
2022-10-13T03:56:28.571Z,18.73
2022-10-13T03:58:57.025Z,18.50
2022-10-13T04:01:26.012Z,22.17
2022-10-13T04:03:54.807Z,17.92
2022-10-13T04:06:22.535Z,17.08
2022-10-13T04:08:49.545Z,16.58
2022-10-13T04:11:17.406Z,20.33
2022-10-13T04:13:45.039Z,21.23
2022-10-13T04:16:21.843Z,21.15
2022-10-13T04:18:57.047Z,20.25
2022-10-13T04:21:24.522Z,18.85
2022-10-13T04:23:51.537Z,20.88
2022-10-13T04:26:20.774Z,20.95
2022-10-13T04:28:51.565Z,20.58
2022-10-13T04:31:18.948Z,22.50
2022-10-13T04:33:46.017Z,18.90
2022-10-13T04:36:14.412Z,20.48
2022-10-13T04:38:42.882Z,20.65
2022-10-13T04:41:10.743Z,20.77
2022-10-13T04:43:37.620Z,24.52
2022-10-13T04:46:15.399Z,22.02
2022-10-13T04:48:42.514Z,22.25
2022-10-13T04:51:11.986Z,108.28
2022-10-13T04:53:39.072Z,25.52
2022-10-13T04:56:08.689Z,26.48
2022-10-13T04:58:36.517Z,24.15
2022-10-13T05:01:06.077Z,23.77
2022-10-13T05:03:33.833Z,25.95
2022-10-13T05:06:01.045Z,27.25
2022-10-13T05:08:27.996Z,35.80
2022-10-13T05:10:56.825Z,35.38
2022-10-13T05:13:25.315Z,25.30
2022-10-13T05:15:52.339Z,31.30
2022-10-13T05:18:19.252Z,33.03
2022-10-13T05:20:46.930Z,34.88
2022-10-13T05:23:14.993Z,31.25
2022-10-13T05:25:42.015Z,37.72
2022-10-13T05:28:08.993Z,33.65
2022-10-13T05:30:35.883Z,37.28
2022-10-13T05:33:02.784Z,35.35
2022-10-13T05:35:29.652Z,33.92
2022-10-13T05:37:56.496Z,46.17
2022-10-13T05:40:23.439Z,31.65
2022-10-13T05:42:51.354Z,28.83
2022-10-13T05:45:19.097Z,32.38
2022-10-13T05:47:46.072Z,35.45
2022-10-13T05:50:13.042Z,36.83
2022-10-13T05:52:40.109Z,46.97
2022-10-13T05:55:09.300Z,39.92
2022-10-13T05:57:41.227Z,42.00
2022-10-13T06:00:10.339Z,43.63
2022-10-13T06:02:52.774Z,44.53
2022-10-13T06:05:21.767Z,50.25
2022-10-13T06:07:48.632Z,43.92
2022-10-13T06:10:15.803Z,38.28
2022-10-13T06:12:42.711Z,26.98
2022-10-13T06:15:10.127Z,39.58
2022-10-13T06:17:38.598Z,25.12
2022-10-13T06:20:07.066Z,21.48
2022-10-13T06:22:35.299Z,16.15
2022-10-13T06:25:02.691Z,17.83
2022-10-13T06:27:29.698Z,15.30
2022-10-13T06:29:56.923Z,17.55
2022-10-13T06:32:24.225Z,17.87
2022-10-13T06:34:51.205Z,18.70
2022-10-13T06:37:18.010Z,20.20
2022-10-13T06:39:44.843Z,19.40
2022-10-13T06:42:11.707Z,18.70
2022-10-13T06:44:38.627Z,19.67
2022-10-13T06:47:05.611Z,17.20
2022-10-13T06:49:32.447Z,20.45
2022-10-13T06:51:59.490Z,21.25
2022-10-13T06:54:26.345Z,24.87
2022-10-13T06:56:53.255Z,23.70
2022-10-13T06:59:20.301Z,22.85
2022-10-13T07:01:48.752Z,26.50
2022-10-13T07:04:15.811Z,22.33
2022-10-13T07:06:42.633Z,25.42
2022-10-13T07:09:09.559Z,22.30
2022-10-13T07:11:36.876Z,22.08
2022-10-13T07:14:03.805Z,25.30
2022-10-13T07:16:31.010Z,22.05
2022-10-13T07:18:57.857Z,23.15
2022-10-13T07:21:24.927Z,23.52
2022-10-13T07:23:51.759Z,22.45
2022-10-13T07:26:18.682Z,24.92
2022-10-13T07:28:45.650Z,24.40
2022-10-13T07:31:15.056Z,21.02
2022-10-13T07:33:43.882Z,22.27
2022-10-13T07:36:11.524Z,19.58
2022-10-13T07:38:38.567Z,17.80
2022-10-13T07:41:06.986Z,16.73
2022-10-13T07:43:34.123Z,15.55
2022-10-13T07:46:02.340Z,14.52
2022-10-13T07:48:29.204Z,14.82
2022-10-13T07:50:56.051Z,15.50
2022-10-13T07:53:22.881Z,13.82
2022-10-13T07:55:49.965Z,15.75
2022-10-13T07:58:16.897Z,16.40
2022-10-13T08:00:43.738Z,18.42
2022-10-13T08:03:10.695Z,14.27
2022-10-13T08:05:39.449Z,21.27
2022-10-13T08:08:06.357Z,16.00
2022-10-13T08:10:33.210Z,17.80
2022-10-13T08:13:00.050Z,14.02
2022-10-13T08:15:26.944Z,18.92
2022-10-13T08:17:53.858Z,15.15
2022-10-13T08:20:20.713Z,15.25
2022-10-13T08:22:47.633Z,14.35
2022-10-13T08:25:14.603Z,14.02
2022-10-13T08:27:51.157Z,13.10
2022-10-13T08:30:19.391Z,16.73
2022-10-13T08:32:46.400Z,13.52
2022-10-13T08:35:13.527Z,15.15
2022-10-13T08:37:40.381Z,16.37
2022-10-13T08:40:08.504Z,17.05
2022-10-13T08:42:35.471Z,17.50
2022-10-13T08:48:00.390Z,16.20
2022-10-13T08:50:30.472Z,15.57
2022-10-13T08:53:12.645Z,16.42
2022-10-13T08:55:44.995Z,15.00
2022-10-13T08:58:21.985Z,13.45
2022-10-13T09:03:28.143Z,17.43
2022-10-13T09:06:09.864Z,12.75
2022-10-13T09:08:58.715Z,16.92
2022-10-13T09:11:34.669Z,17.27
2022-10-13T09:14:04.668Z,16.87
2022-10-13T09:16:43.175Z,15.95
2022-10-13T09:19:24.042Z,14.75
2022-10-13T09:21:53.049Z,13.52
2022-10-13T09:24:22.121Z,15.98
2022-10-13T09:26:51.437Z,15.93
2022-10-13T09:29:25.954Z,15.95
2022-10-13T09:32:08.756Z,16.48
2022-10-13T09:34:35.652Z,15.40
2022-10-13T09:37:05.661Z,18.85
2022-10-13T09:39:33.428Z,19.73
2022-10-13T09:42:19.862Z,17.50
2022-10-13T09:44:47.561Z,18.20
2022-10-13T09:47:26.738Z,15.85
2022-10-13T09:50:15.948Z,19.10
2022-10-13T09:52:43.630Z,17.83
2022-10-13T09:55:34.540Z,15.52
2022-10-13T09:58:25.797Z,13.82
2022-10-13T10:00:53.057Z,14.80
2022-10-13T10:03:24.122Z,15.00
2022-10-13T10:06:00.272Z,13.95
2022-10-13T10:09:01.463Z,15.83
2022-10-13T10:11:42.027Z,13.38
2022-10-13T10:14:34.081Z,18.00
2022-10-13T10:17:33.455Z,14.10
2022-10-13T10:20:24.466Z,18.25
2022-10-13T10:23:38.179Z,18.58
2022-10-13T10:26:14.043Z,18.00
2022-10-13T10:29:00.394Z,15.50
2022-10-13T10:31:57.131Z,18.10
2022-10-13T10:34:29.336Z,17.00
2022-10-13T10:37:26.555Z,20.02
2022-10-13T10:40:00.268Z,20.07
2022-10-13T10:42:52.130Z,17.58
2022-10-13T10:45:23.489Z,18.05
2022-10-13T10:47:53.231Z,19.58
2022-10-13T10:50:21.065Z,21.30
2022-10-13T10:53:01.369Z,17.40
2022-10-13T10:55:51.660Z,17.87
2022-10-13T10:58:18.703Z,20.30
2022-10-13T11:00:55.717Z,19.60
2022-10-13T11:06:03.590Z,18.55
2022-10-13T11:08:42.443Z,15.70
2022-10-13T11:11:28.603Z,17.35
2022-10-13T11:14:01.303Z,20.70
2022-10-13T11:16:34.885Z,16.48
2022-10-13T11:19:20.805Z,15.32
2022-10-13T11:21:59.890Z,18.23
2022-10-13T11:24:41.587Z,21.50
2022-10-13T11:27:08.362Z,16.50
2022-10-13T11:30:01.238Z,19.67
2022-10-13T11:32:28.303Z,18.70
2022-10-13T11:34:57.963Z,17.37
2022-10-13T11:37:29.315Z,15.88
2022-10-13T11:40:09.549Z,18.45
2022-10-13T11:42:55.564Z,18.23
2022-10-13T11:45:25.287Z,17.23
2022-10-13T11:48:05.266Z,15.75
2022-10-13T11:51:12.540Z,15.15
2022-10-13T11:53:42.239Z,17.50
2022-10-13T11:56:20.270Z,14.98
2022-10-13T11:58:47.110Z,17.05
2022-10-13T12:01:16.286Z,17.75
2022-10-13T12:03:45.074Z,16.12
2022-10-13T12:06:21.134Z,17.00
2022-10-13T12:08:52.054Z,17.07
2022-10-13T12:11:30.632Z,17.10
2022-10-13T12:13:57.862Z,16.90
2022-10-13T12:16:24.866Z,16.50
2022-10-13T12:18:51.796Z,17.65
2022-10-13T12:21:22.490Z,19.62
2022-10-13T12:23:50.990Z,18.37
2022-10-13T12:26:22.920Z,15.98
2022-10-13T12:28:56.266Z,15.75
2022-10-13T12:31:28.503Z,19.62
2022-10-13T12:34:04.929Z,17.85
2022-10-13T12:36:33.753Z,16.25
2022-10-13T12:39:08.360Z,17.02
2022-10-13T12:41:36.904Z,14.85
2022-10-13T12:44:06.748Z,16.58
2022-10-13T12:46:42.999Z,14.45
2022-10-13T12:51:58.836Z,19.98
2022-10-13T12:54:31.000Z,19.15
2022-10-13T12:57:16.045Z,16.67
2022-10-13T12:59:43.293Z,17.90
2022-10-13T13:02:36.669Z,16.25
2022-10-13T13:05:37.462Z,18.83
2022-10-13T13:08:06.141Z,16.95
2022-10-13T13:10:35.219Z,21.35
2022-10-13T13:13:23.058Z,17.80
2022-10-13T13:15:50.142Z,18.45
2022-10-13T13:18:36.810Z,16.83
2022-10-13T13:21:08.433Z,15.50
2022-10-13T13:23:36.136Z,16.25
2022-10-13T13:26:23.689Z,16.17
2022-10-13T13:31:23.673Z,14.87
2022-10-13T13:33:50.536Z,19.08
2022-10-13T13:36:25.253Z,14.48
2022-10-13T13:38:53.434Z,13.73
2022-10-13T13:41:20.709Z,14.68
2022-10-13T13:43:47.851Z,15.80
2022-10-13T13:46:20.524Z,14.30
2022-10-13T13:48:47.417Z,15.15
2022-10-13T13:51:14.381Z,20.80
2022-10-13T13:53:41.292Z,15.00
2022-10-13T13:56:13.929Z,16.08
2022-10-13T13:58:40.796Z,15.90
2022-10-13T14:01:08.646Z,15.50
2022-10-13T14:03:35.507Z,15.32
2022-10-13T14:06:02.399Z,13.55
2022-10-13T14:08:33.230Z,16.85
2022-10-13T14:11:00.104Z,15.55
2022-10-13T14:13:27.026Z,14.63
2022-10-13T14:16:00.266Z,13.20
2022-10-13T14:18:27.269Z,15.77
2022-10-13T14:20:54.328Z,18.00
2022-10-13T14:23:21.439Z,14.50
2022-10-13T14:25:48.315Z,17.65
2022-10-13T14:28:18.227Z,14.80
2022-10-13T14:30:45.464Z,15.45
2022-10-13T14:33:12.408Z,17.10
2022-10-13T14:35:40.271Z,16.87
2022-10-13T14:38:07.117Z,14.77
2022-10-13T14:40:33.937Z,13.65
2022-10-13T14:43:00.916Z,14.57
2022-10-13T14:45:27.788Z,13.80
2022-10-13T14:47:54.654Z,16.35
2022-10-13T14:50:21.519Z,16.02
2022-10-13T14:52:48.379Z,14.95
2022-10-13T14:55:15.275Z,16.08
2022-10-13T14:57:42.111Z,16.52
2022-10-13T15:00:10.919Z,18.42
2022-10-13T15:02:37.760Z,15.02
2022-10-13T15:05:06.196Z,14.75
2022-10-13T15:07:33.073Z,18.62
2022-10-13T15:10:05.514Z,20.05
2022-10-13T15:12:33.492Z,20.52
2022-10-13T15:15:00.365Z,17.20
2022-10-13T15:17:28.125Z,19.52
2022-10-13T15:19:55.406Z,18.83
2022-10-13T15:22:22.570Z,24.00
2022-10-13T15:24:49.792Z,24.25
2022-10-13T15:27:16.917Z,21.58
2022-10-13T15:29:43.765Z,25.50
2022-10-13T15:32:13.674Z,27.23
2022-10-13T15:34:40.629Z,28.17
2022-10-13T15:37:07.757Z,30.25
2022-10-13T15:39:34.672Z,29.08
2022-10-13T15:42:01.714Z,33.05
2022-10-13T15:44:30.893Z,37.92
2022-10-13T15:47:07.778Z,28.55
2022-10-13T15:49:39.635Z,29.40
2022-10-13T15:52:06.558Z,25.80
2022-10-13T15:54:33.680Z,25.85
2022-10-13T15:57:00.534Z,31.40
2022-10-13T15:59:27.379Z,35.45
2022-10-13T16:01:54.230Z,37.47
2022-10-13T16:04:21.099Z,39.70
2022-10-13T16:06:47.968Z,44.97
2022-10-13T16:09:14.825Z,47.08
2022-10-13T16:11:41.818Z,59.28
2022-10-13T16:14:09.143Z,86.40
2022-10-13T16:16:35.963Z,91.80
2022-10-13T16:19:02.828Z,100.68
2022-10-13T16:21:29.684Z,109.00
2022-10-13T16:23:56.943Z,100.03
2022-10-13T16:26:23.866Z,90.85
2022-10-13T16:28:54.926Z,54.70
2022-10-13T16:31:21.798Z,65.72
2022-10-13T16:33:48.995Z,50.55
2022-10-13T16:36:18.499Z,51.22
2022-10-13T16:38:46.652Z,44.47
2022-10-13T16:41:16.268Z,43.38
2022-10-13T16:43:44.110Z,36.00
2022-10-13T16:46:15.923Z,37.22
2022-10-13T16:48:44.515Z,28.87
2022-10-13T16:51:16.737Z,29.58
2022-10-13T16:53:43.731Z,23.67
2022-10-13T16:56:15.640Z,33.08
2022-10-13T16:58:45.368Z,28.62
2022-10-13T17:01:12.706Z,26.50
2022-10-13T17:03:40.025Z,23.77
2022-10-13T17:06:07.402Z,26.73
2022-10-13T17:08:34.238Z,37.95
2022-10-13T17:11:01.561Z,37.83
2022-10-13T17:13:28.542Z,28.75
2022-10-13T17:15:57.142Z,26.08
2022-10-13T17:18:24.868Z,20.77
2022-10-13T17:20:53.532Z,23.20
2022-10-13T17:23:20.911Z,17.25
2022-10-13T17:25:48.162Z,21.00
2022-10-13T17:28:15.492Z,26.85
2022-10-13T17:30:42.458Z,23.33
2022-10-13T17:33:09.495Z,22.90
2022-10-13T17:35:36.338Z,21.15
2022-10-13T17:38:03.270Z,24.52
2022-10-13T17:40:33.837Z,26.12
2022-10-13T17:43:00.724Z,26.17
2022-10-13T17:45:27.943Z,29.48
2022-10-13T17:47:58.597Z,51.33
2022-10-13T17:50:26.462Z,48.20
2022-10-13T17:52:53.778Z,56.58
2022-10-13T17:55:20.653Z,60.55
2022-10-13T17:57:47.460Z,72.60
2022-10-13T18:00:15.051Z,61.83
2022-10-13T18:02:41.888Z,67.65
2022-10-13T18:05:08.989Z,98.68
2022-10-13T18:07:36.179Z,94.57
2022-10-13T18:10:05.097Z,60.67
2022-10-13T18:12:32.497Z,80.62
2022-10-13T18:14:59.354Z,62.72
2022-10-13T18:17:26.158Z,97.25
2022-10-13T18:19:53.566Z,80.57
2022-10-13T18:22:20.473Z,67.43
2022-10-13T18:24:47.602Z,74.45
2022-10-13T18:27:14.821Z,89.55
2022-10-13T18:29:42.693Z,51.78
2022-10-13T18:32:09.558Z,37.20
2022-10-13T18:34:36.453Z,40.28
2022-10-13T18:37:05.701Z,41.67
2022-10-13T18:39:34.545Z,40.05
2022-10-13T18:42:01.671Z,39.72
2022-10-13T18:44:28.723Z,30.95
2022-10-13T18:46:56.661Z,30.10
2022-10-13T18:49:31.079Z,33.40
2022-10-13T18:51:59.341Z,31.50
2022-10-13T18:54:26.951Z,33.05
2022-10-13T18:56:53.843Z,28.83
2022-10-13T18:59:21.014Z,36.33
2022-10-13T19:01:47.946Z,36.83
2022-10-13T19:04:16.874Z,25.83
2022-10-13T19:06:44.684Z,31.15
2022-10-13T19:09:15.076Z,35.38
2022-10-13T19:11:42.333Z,24.30
2022-10-13T19:14:11.539Z,24.02
2022-10-13T19:16:40.156Z,31.83
2022-10-13T19:19:09.389Z,27.48
2022-10-13T19:21:37.396Z,27.85
2022-10-13T19:24:04.523Z,27.40
2022-10-13T19:26:33.122Z,23.50
2022-10-13T19:29:03.488Z,28.33
2022-10-13T19:31:31.728Z,26.70
2022-10-13T19:33:59.561Z,24.42
2022-10-13T19:36:33.414Z,30.65
2022-10-13T19:39:01.020Z,37.70
2022-10-13T19:41:30.924Z,30.83
2022-10-13T19:43:58.281Z,28.23
2022-10-13T19:46:25.393Z,26.35
2022-10-13T19:48:53.390Z,25.80
2022-10-13T19:51:20.259Z,27.60
2022-10-13T19:53:47.166Z,26.70
2022-10-13T19:56:21.651Z,33.05
2022-10-13T19:58:48.498Z,26.33
2022-10-13T20:01:15.402Z,22.45
2022-10-13T20:03:42.299Z,26.60
2022-10-13T20:06:09.582Z,24.80
2022-10-13T20:08:36.809Z,24.70
2022-10-13T20:11:12.012Z,24.92
2022-10-13T20:13:38.875Z,21.02
2022-10-13T20:16:07.505Z,25.58
2022-10-13T20:18:34.953Z,26.95
2022-10-13T20:21:03.698Z,26.15
2022-10-13T20:23:31.539Z,25.45
2022-10-13T20:26:02.929Z,27.75
2022-10-13T20:28:29.792Z,25.58
2022-10-13T20:30:56.662Z,20.30
2022-10-13T20:33:23.648Z,23.87
2022-10-13T20:35:50.811Z,25.42
2022-10-13T20:38:18.413Z,26.75
2022-10-13T20:40:45.309Z,22.58
2022-10-13T20:43:12.185Z,24.92
2022-10-13T20:45:39.022Z,29.37
2022-10-13T20:48:06.013Z,36.30
2022-10-13T20:50:32.834Z,38.95
2022-10-13T20:52:59.687Z,35.53
2022-10-13T20:55:26.593Z,27.60
2022-10-13T20:57:53.461Z,30.85
2022-10-13T21:00:20.443Z,20.80
2022-10-13T21:02:48.233Z,22.75
2022-10-13T21:05:15.838Z,19.45
2022-10-13T21:07:42.822Z,27.08
2022-10-13T21:10:10.119Z,24.20
2022-10-13T21:12:37.006Z,21.98
2022-10-13T21:15:03.992Z,28.05
2022-10-13T21:17:30.877Z,30.70
2022-10-13T21:19:58.554Z,35.15
2022-10-13T21:22:25.490Z,32.78
2022-10-13T21:24:53.329Z,27.65
2022-10-13T21:27:20.351Z,30.90
2022-10-13T21:29:47.299Z,35.72
2022-10-13T21:32:14.140Z,47.75
2022-10-13T21:34:40.979Z,53.55
2022-10-13T21:37:08.319Z,63.40
2022-10-13T21:39:35.189Z,55.80
2022-10-13T21:42:02.117Z,58.25
2022-10-13T21:44:31.028Z,61.10
2022-10-13T21:46:57.906Z,62.95
2022-10-13T21:49:24.754Z,59.13
2022-10-13T21:51:51.692Z,59.53
2022-10-13T21:54:18.559Z,48.60
2022-10-13T21:56:45.349Z,48.97
2022-10-13T21:59:13.102Z,50.85
2022-10-13T22:01:40.129Z,48.15
2022-10-13T22:04:07.054Z,49.58
2022-10-13T22:06:34.471Z,53.22
2022-10-13T22:09:03.545Z,49.72
2022-10-13T22:11:33.075Z,51.25
2022-10-13T22:14:00.229Z,54.00
2022-10-13T22:16:30.452Z,51.78
2022-10-13T22:18:58.258Z,53.47
2022-10-13T22:21:27.846Z,55.95
2022-10-13T22:24:03.148Z,54.92
2022-10-13T22:26:32.548Z,56.33
2022-10-13T22:29:01.061Z,63.03
2022-10-13T22:31:28.202Z,66.45
2022-10-13T22:33:55.467Z,61.22
2022-10-13T22:36:23.693Z,39.10
2022-10-13T22:38:51.377Z,41.55
2022-10-13T22:41:19.330Z,37.45
2022-10-13T22:43:53.005Z,33.83
2022-10-13T22:46:21.690Z,31.30
2022-10-13T22:48:48.725Z,33.88
2022-10-13T22:51:18.220Z,23.52
2022-10-13T22:53:45.431Z,30.85
2022-10-13T22:56:21.638Z,27.48
2022-10-13T22:58:59.769Z,32.63
2022-10-13T23:01:27.214Z,31.00
2022-10-13T23:03:56.554Z,32.78
2022-10-13T23:06:26.081Z,24.25
2022-10-13T23:08:52.967Z,23.15
2022-10-13T23:11:20.370Z,40.58
2022-10-13T23:13:47.614Z,28.02
2022-10-13T23:16:17.322Z,23.40
2022-10-13T23:18:44.196Z,25.65
2022-10-13T23:21:13.234Z,23.08
2022-10-13T23:23:40.122Z,21.65
2022-10-13T23:26:14.001Z,23.80
2022-10-13T23:28:41.271Z,24.05
2022-10-13T23:31:13.552Z,24.60
2022-10-13T23:33:40.406Z,21.17
2022-10-13T23:36:08.419Z,23.67
2022-10-13T23:38:35.751Z,25.08
2022-10-13T23:41:07.879Z,22.02
2022-10-13T23:43:34.981Z,20.70
2022-10-13T23:46:02.071Z,21.67
2022-10-13T23:48:28.942Z,22.40
2022-10-13T23:50:56.068Z,21.98
2022-10-13T23:53:23.276Z,23.38
2022-10-13T23:55:50.267Z,25.80
2022-10-13T23:58:17.110Z,28.40
